North Granby, Connecticut
Current Conditions -  °F | °C
As of 10:51 AM on Friday 31 Oct 2014 (Local Time) from KBDL Reporting Station
Broken Clouds Broken Clouds  
Wind Chill: 46°   Ceiling: 4800
Heat Index: 49°   Visibility: 10mi
Dew Point: 37°   Wind: 7mph
Humidity: 64%   Direction: 10°N
Pressure: 30.02"   Gusts: NA
Location:  42.02°N, 72.84°W
Report Text: KBDL 311451Z 01006KT 10SM FEW028 SCT033 BKN048 BKN250 09/03 A3002 RMK AO2 SLP166 T00940028 58004
Loading
Personal Weather Stations






























Interactive Weather Map
Tropical Storm Tracking
New forecast layout! Learn more

10-Day Weather Forecast

Advertisements
Track Severe Weather on mobile